Time;durP1;ratioP1;P1;durP2;ratioP2;P2;SDS_P1;SDS_P2;PMS_P1;PMS_P2;Temp;Humidity;BMP_temperature;BMP_pressure;BME280_temperature;BME280_humidity;BME280_pressure;Samples;Min_cycle;Max_cycle;Signal;HPM_P1;HPM_P2
2022/06/08 00:00:26;;;;;;;3.20;2.90;;;15.20;99.90;;;;;;4957220;29;20020;-78
2022/06/08 00:03:05;;;;;;;3.40;3.20;;;15.10;99.90;;;;;;4957429;29;20031;-78
2022/06/08 00:05:31;;;;;;;4.65;4.25;;;15.10;99.90;;;;;;4956990;29;20475;-78
2022/06/08 00:07:56;;;;;;;3.88;3.45;;;15.10;99.90;;;;;;4957129;29;20031;-77
2022/06/08 00:10:22;;;;;;;8.60;3.78;;;15.10;99.90;;;;;;4939893;29;20027;-78
2022/06/08 00:12:48;;;;;;;4.90;4.40;;;15.10;99.90;;;;;;4957146;29;20034;-77
2022/06/08 00:15:14;;;;;;;4.95;4.47;;;15.10;99.90;;;;;;4939825;29;20031;-78
2022/06/08 00:17:40;;;;;;;3.85;3.00;;;15.00;99.90;;;;;;4957219;29;20054;-79
2022/06/08 00:20:08;;;;;;;3.97;2.60;;;15.00;99.90;;;;;;4939723;29;20463;-80
2022/06/08 00:22:34;;;;;;;3.63;3.20;;;15.00;99.90;;;;;;4939640;29;20042;-79
2022/06/08 00:24:59;;;;;;;3.75;3.15;;;15.00;99.90;;;;;;4956670;29;20058;-80
2022/06/08 00:27:25;;;;;;;4.10;3.75;;;14.90;99.90;;;;;;4939705;29;20034;-80
2022/06/08 00:29:51;;;;;;;5.15;3.42;;;14.90;99.90;;;;;;4956792;29;20035;-81
2022/06/08 00:32:18;;;;;;;5.40;3.85;;;14.90;99.90;;;;;;4940014;29;20032;-81
2022/06/08 00:34:44;;;;;;;5.20;4.00;;;15.00;99.90;;;;;;4956936;29;20094;-81
2022/06/08 00:37:09;;;;;;;4.50;3.88;;;15.00;99.90;;;;;;4939457;29;20023;-81
2022/06/08 00:39:35;;;;;;;4.03;3.63;;;15.00;99.90;;;;;;4956851;29;20027;-81
2022/06/08 00:42:10;;;;;;;3.97;3.65;;;15.00;99.90;;;;;;4956576;29;20027;-81
2022/06/08 00:44:42;;;;;;;5.50;3.35;;;14.90;99.90;;;;;;4939247;29;20070;-82
2022/06/08 00:47:11;;;;;;;4.03;3.63;;;14.90;99.90;;;;;;4939397;29;20032;-81
2022/06/08 00:49:54;;;;;;;5.40;4.28;;;14.90;99.90;;;;;;4956877;29;20062;-85
2022/06/08 00:52:21;;;;;;;3.90;3.38;;;14.90;99.90;;;;;;4956434;29;20028;-83
2022/06/08 00:54:52;;;;;;;6.28;3.78;;;14.90;99.90;;;;;;4956707;29;20097;-81
2022/06/08 00:57:23;;;;;;;3.47;3.03;;;14.90;99.90;;;;;;4956403;28;20026;-81
2022/06/08 01:00:03;;;;;;;4.15;3.50;;;14.90;99.90;;;;;;4956261;29;20493;-81
2022/06/08 01:02:28;;;;;;;;;;;14.80;99.90;;;;;;4939757;29;20027;-82
2022/06/08 01:05:15;;;;;;;4.97;4.03;;;14.90;99.90;;;;;;4956186;29;20318;-81
2022/06/08 01:07:42;;;;;;;6.20;4.22;;;14.90;99.90;;;;;;4939052;29;20121;-82
2022/06/08 01:10:17;;;;;;;6.22;5.25;;;14.90;99.90;;;;;;4956404;29;20070;-81
2022/06/08 01:12:43;;;;;;;4.85;4.45;;;14.90;99.90;;;;;;4956103;29;20042;-79
2022/06/08 01:15:15;;;;;;;4.93;4.50;;;14.90;99.90;;;;;;4938861;29;20038;-81
2022/06/08 01:17:41;;;;;;;5.70;5.20;;;14.80;99.90;;;;;;4938994;29;20031;-82
2022/06/08 01:20:07;;;;;;;4.85;4.45;;;14.80;99.90;;;;;;4955824;29;20466;-82
2022/06/08 01:22:33;;;;;;;5.00;4.47;;;14.80;99.90;;;;;;4955920;29;20055;-81
2022/06/08 01:24:59;;;;;;;9.45;6.30;;;14.80;99.90;;;;;;4938488;29;20051;-82
2022/06/08 01:28:00;;;;;;;5.80;5.18;;;14.80;99.90;;;;;;4955889;29;20034;-81
2022/06/08 01:30:34;;;;;;;7.00;5.10;;;14.80;99.90;;;;;;4956065;29;20360;-83
2022/06/08 01:33:22;;;;;;;8.02;5.93;;;14.80;99.90;;;;;;4938877;29;20102;-81
2022/06/08 01:36:06;;;;;;;6.15;5.63;;;14.70;99.90;;;;;;4956243;29;20031;-82
2022/06/08 01:38:31;;;;;;;6.78;5.05;;;14.70;99.90;;;;;;4955678;29;20039;-81
2022/06/08 01:41:15;;;;;;;6.20;5.05;;;14.70;99.90;;;;;;4955972;29;20031;-82
2022/06/08 01:44:02;;;;;;;6.85;5.13;;;14.60;99.90;;;;;;4955794;29;20028;-81
2022/06/08 01:46:32;;;;;;;6.57;5.88;;;14.60;99.90;;;;;;4955784;29;20483;-82
2022/06/08 01:49:10;;;;;;;6.35;5.70;;;14.60;99.90;;;;;;4955800;29;20031;-81
2022/06/08 01:52:02;;;;;;;7.82;5.50;;;14.60;99.90;;;;;;4938881;29;20150;-82
2022/06/08 01:54:52;;;;;;;12.88;6.13;;;14.60;99.90;;;;;;4955785;29;20046;-81
2022/06/08 01:57:30;;;;;;;9.65;5.68;;;14.60;99.90;;;;;;4955685;29;20027;-81
2022/06/08 02:00:05;;;;;;;6.07;5.43;;;14.60;99.90;;;;;;4956165;29;20027;-82
2022/06/08 02:03:16;;;;;;;6.05;5.50;;;14.50;99.90;;;;;;4954491;29;20027;-82
2022/06/08 02:05:56;;;;;;;6.75;6.15;;;14.50;99.90;;;;;;4877626;29;20043;-81
2022/06/08 02:08:37;;;;;;;7.70;6.15;;;14.50;99.90;;;;;;4947089;29;20044;-82
2022/06/08 02:11:27;;;;;;;10.27;6.55;;;14.50;99.90;;;;;;4958752;29;20423;-81
2022/06/08 02:13:58;;;;;;;7.18;6.30;;;14.50;99.90;;;;;;4958279;29;20035;-81
2022/06/08 02:16:48;;;;;;;9.45;6.72;;;14.60;99.90;;;;;;4959219;29;20031;-83
2022/06/08 02:19:25;;;;;;;10.55;6.45;;;14.50;99.90;;;;;;4959451;29;20030;-82
2022/06/08 02:22:28;;;;;;;9.50;7.40;;;14.60;99.90;;;;;;4959245;29;20035;-82
2022/06/08 02:25:12;;;;;;;8.10;7.00;;;14.60;99.90;;;;;;4899989;29;20052;-82
2022/06/08 02:27:45;;;;;;;8.43;7.40;;;14.50;99.90;;;;;;4959125;29;20391;-82
2022/06/08 02:30:17;;;;;;;13.48;7.78;;;14.50;99.90;;;;;;4958869;29;20502;-82
2022/06/08 02:35:52;;;;;;;9.70;8.52;;;14.50;99.90;;;;;;4958892;29;20065;-81
2022/06/08 02:38:22;;;;;;;11.10;8.00;;;14.50;99.90;;;;;;4941663;29;20114;-81
2022/06/08 02:40:51;;;;;;;13.38;9.30;;;14.50;99.90;;;;;;4959048;29;20371;-81
2022/06/08 02:43:25;;;;;;;14.10;10.13;;;14.50;99.90;;;;;;4958721;29;20035;-82
2022/06/08 02:46:00;;;;;;;9.90;8.90;;;14.50;99.90;;;;;;4958874;29;20102;-82
2022/06/08 02:48:26;;;;;;;10.65;8.90;;;14.50;99.90;;;;;;4958658;29;20579;-83
2022/06/08 02:50:55;;;;;;;11.80;8.90;;;14.50;99.90;;;;;;4958935;29;20031;-81
2022/06/08 02:53:20;;;;;;;;;;;14.50;99.90;;;;;;4959132;29;20114;-82
2022/06/08 02:56:22;;;;;;;10.00;8.93;;;14.50;99.90;;;;;;4958715;29;20421;-81
2022/06/08 02:59:02;;;;;;;13.15;9.32;;;14.60;99.90;;;;;;4941823;29;20483;-81
2022/06/08 03:01:36;;;;;;;11.75;9.25;;;14.60;99.90;;;;;;4941692;29;20023;-82
2022/06/08 03:04:07;;;;;;;12.25;9.18;;;14.60;99.90;;;;;;4941180;29;20039;-80
2022/06/08 03:06:39;;;;;;;9.82;8.35;;;14.60;99.90;;;;;;4958410;29;20050;-82
2022/06/08 03:09:09;;;;;;;13.00;9.00;;;14.60;99.90;;;;;;4958557;29;20031;-81
2022/06/08 03:11:43;;;;;;;10.23;9.00;;;14.60;99.90;;;;;;4958541;29;20059;-81
2022/06/08 03:14:12;;;;;;;10.15;8.85;;;14.60;99.90;;;;;;4941201;29;20387;-81
2022/06/08 03:16:41;;;;;;;12.00;9.25;;;14.60;99.90;;;;;;4958221;29;20039;-81
2022/06/08 03:19:09;;;;;;;11.73;9.02;;;14.60;99.90;;;;;;4940748;29;20031;-81
2022/06/08 03:21:35;;;;;;;10.43;9.10;;;14.60;99.90;;;;;;4956486;28;20364;-81
2022/06/08 03:24:02;;;;;;;9.98;8.88;;;14.70;99.90;;;;;;4957918;29;20034;-81
2022/06/08 03:26:36;;;;;;;10.18;8.70;;;14.70;99.90;;;;;;4940802;29;20050;-81
2022/06/08 03:29:02;;;;;;;10.18;8.48;;;14.70;99.90;;;;;;4958041;29;20527;-80
2022/06/08 03:31:28;;;;;;;10.35;7.72;;;14.70;99.90;;;;;;4957961;29;20057;-81
2022/06/08 03:33:53;;;;;;;10.43;8.80;;;14.70;99.90;;;;;;4958064;29;20069;-81
2022/06/08 03:36:19;;;;;;;13.05;9.20;;;14.70;99.90;;;;;;4958164;29;20470;-82
2022/06/08 03:38:44;;;;;;;12.18;8.25;;;14.70;99.90;;;;;;4958140;29;20023;-81
2022/06/08 03:41:10;;;;;;;9.85;8.75;;;14.70;99.90;;;;;;4957751;29;20023;-81
2022/06/08 03:43:37;;;;;;;12.88;10.48;;;14.70;99.90;;;;;;4958637;29;20375;-81
2022/06/08 03:46:05;;;;;;;11.32;9.23;;;14.80;99.90;;;;;;4957620;29;20037;-81
2022/06/08 03:48:33;;;;;;;12.73;9.60;;;14.80;99.90;;;;;;4957707;29;20055;-82
2022/06/08 03:50:59;;;;;;;11.02;8.48;;;14.80;99.90;;;;;;4957565;29;20027;-81
2022/06/08 03:53:34;;;;;;;11.00;8.60;;;14.90;99.90;;;;;;4957670;29;20023;-83
2022/06/08 03:56:03;;;;;;;12.45;8.90;;;14.90;99.90;;;;;;4940719;29;20082;-81
2022/06/08 03:58:29;;;;;;;11.90;8.55;;;14.90;99.90;;;;;;4940520;29;20030;-82
2022/06/08 04:00:55;;;;;;;9.15;8.15;;;15.00;99.90;;;;;;4940396;29;20042;-81
2022/06/08 04:03:21;;;;;;;11.95;8.48;;;15.00;99.90;;;;;;4957110;29;20382;-80
2022/06/08 04:05:47;;;;;;;9.68;8.27;;;15.10;99.90;;;;;;4956917;29;20027;-78
2022/06/08 04:08:13;;;;;;;10.30;8.38;;;15.10;99.90;;;;;;4957598;29;20035;-78
2022/06/08 04:10:38;;;;;;;10.30;8.57;;;15.10;99.90;;;;;;4957083;29;20030;-78
2022/06/08 04:13:04;;;;;;;9.15;7.88;;;15.20;99.90;;;;;;4939761;29;20058;-77
2022/06/08 04:15:42;;;;;;;14.85;9.02;;;15.20;99.90;;;;;;4956945;29;20027;-78
2022/06/08 04:18:09;;;;;;;11.82;8.30;;;15.20;99.90;;;;;;4956951;29;20098;-78
2022/06/08 04:20:37;;;;;;;13.55;8.82;;;15.20;99.90;;;;;;4939672;29;20106;-79
2022/06/08 04:23:04;;;;;;;13.32;8.80;;;15.30;99.90;;;;;;4956923;29;20057;-81
2022/06/08 04:25:30;;;;;;;12.38;8.93;;;15.30;99.90;;;;;;4956655;29;20594;-80
2022/06/08 04:27:56;;;;;;;10.70;8.57;;;15.30;99.90;;;;;;4956956;29;20023;-79
2022/06/08 04:30:23;;;;;;;15.75;9.50;;;15.40;99.90;;;;;;4956799;29;20031;-79
2022/06/08 04:32:48;;;;;;;16.08;10.23;;;15.40;99.90;;;;;;4956290;28;20054;-81
2022/06/08 04:35:15;;;;;;;10.43;9.05;;;15.50;99.90;;;;;;4939414;29;20463;-81
2022/06/08 04:37:41;;;;;;;13.48;9.52;;;15.50;99.90;;;;;;4939419;29;20031;-79
2022/06/08 04:40:09;;;;;;;13.98;9.77;;;15.60;99.90;;;;;;4957149;29;20035;-86
2022/06/08 04:42:35;;;;;;;14.05;9.68;;;15.70;99.90;;;;;;4939588;29;20023;-82
2022/06/08 04:45:03;;;;;;;12.35;9.52;;;15.70;99.90;;;;;;4956526;29;20077;-82
2022/06/08 04:47:28;;;;;;;15.05;10.30;;;15.80;99.90;;;;;;4956628;29;20463;-82
2022/06/08 04:49:54;;;;;;;14.48;8.88;;;15.80;99.90;;;;;;4956451;29;20041;-80
2022/06/08 04:52:19;;;;;;;13.32;8.93;;;15.90;99.90;;;;;;4939376;29;20034;-81
2022/06/08 04:54:45;;;;;;;10.00;8.50;;;15.90;99.90;;;;;;4939296;29;20031;-80
2022/06/08 04:57:11;;;;;;;13.65;9.35;;;16.00;99.90;;;;;;4939180;29;20052;-80
2022/06/08 04:59:37;;;;;;;10.85;7.50;;;16.10;99.90;;;;;;4956295;29;20449;-80
2022/06/08 05:02:03;;;;;;;11.60;8.45;;;16.10;99.90;;;;;;4956146;29;20023;-80
2022/06/08 05:04:29;;;;;;;10.35;7.30;;;16.20;99.90;;;;;;4939265;29;20130;-81
2022/06/08 05:06:55;;;;;;;9.88;7.25;;;16.20;99.90;;;;;;4956102;29;20098;-81
2022/06/08 05:09:20;;;;;;;8.13;6.47;;;16.20;99.90;;;;;;4938998;29;20125;-81
2022/06/08 05:11:46;;;;;;;10.27;7.13;;;16.20;99.90;;;;;;4956127;29;20474;-81
2022/06/08 05:14:12;;;;;;;8.40;6.15;;;16.30;99.90;;;;;;4938846;29;20086;-82
2022/06/08 05:16:37;;;;;;;7.05;5.53;;;16.30;99.90;;;;;;4939046;29;20099;-82
2022/06/08 05:19:03;;;;;;;6.82;5.75;;;16.30;99.90;;;;;;4956096;29;20506;-83
2022/06/08 05:21:29;;;;;;;7.45;5.60;;;16.30;99.90;;;;;;4956128;29;20462;-84
2022/06/08 05:23:55;;;;;;;11.25;7.15;;;16.40;99.90;;;;;;4956344;29;20054;-84
2022/06/08 05:26:20;;;;;;;8.15;5.05;;;16.40;99.90;;;;;;4935431;29;20052;-85
2022/06/08 05:28:46;;;;;;;5.80;5.28;;;16.40;99.90;;;;;;4920335;29;20054;-84
2022/06/08 05:31:12;;;;;;;6.03;5.38;;;16.40;99.90;;;;;;4937365;29;20107;-86
2022/06/08 05:33:38;;;;;;;7.82;5.53;;;16.40;99.90;;;;;;4937148;29;20042;-85
2022/06/08 05:36:04;;;;;;;7.72;5.95;;;16.50;99.90;;;;;;4920330;29;20551;-86
2022/06/08 05:38:30;;;;;;;5.22;4.50;;;16.50;99.90;;;;;;4937316;29;20032;-87
2022/06/08 05:40:56;;;;;;;4.93;4.43;;;16.50;99.90;;;;;;4920509;29;20164;-88
2022/06/08 05:43:22;;;;;;;7.70;4.85;;;16.50;99.90;;;;;;4936140;29;20035;-88
2022/06/08 05:45:48;;;;;;;6.13;5.20;;;16.50;99.90;;;;;;4940326;29;20055;-88
2022/06/08 05:48:15;;;;;;;8.77;5.43;;;16.60;99.90;;;;;;4940550;29;20423;-88
2022/06/08 05:50:41;;;;;;;5.25;4.63;;;16.60;99.90;;;;;;4941169;29;20024;-87
2022/06/08 05:53:07;;;;;;;5.82;4.60;;;16.70;99.90;;;;;;4924104;29;20036;-88
2022/06/08 05:55:34;;;;;;;10.32;4.38;;;16.80;99.90;;;;;;4941141;29;20115;-88
2022/06/08 05:57:59;;;;;;;4.55;4.15;;;16.80;99.90;;;;;;4941018;29;20047;-88
2022/06/08 06:00:33;;;;;;;6.07;4.32;;;16.80;99.90;;;;;;4941114;29;20043;-88
2022/06/08 06:03:00;;;;;;;5.10;4.38;;;16.90;99.90;;;;;;4940881;29;20063;-87
2022/06/08 06:05:29;;;;;;;9.18;4.65;;;17.00;99.90;;;;;;4940777;29;20044;-85
2022/06/08 06:07:56;;;;;;;6.47;4.03;;;17.10;99.90;;;;;;4923781;29;20028;-87
2022/06/08 06:10:24;;;;;;;4.95;4.07;;;17.20;99.90;;;;;;4923761;29;20087;-86
2022/06/08 06:12:51;;;;;;;4.72;3.65;;;17.30;99.90;;;;;;4940665;29;20024;-86
2022/06/08 06:15:16;;;;;;;6.53;4.00;;;17.40;99.90;;;;;;4940777;29;20471;-86
2022/06/08 06:17:42;;;;;;;6.88;3.85;;;17.40;99.90;;;;;;4940451;29;20027;-87
2022/06/08 06:20:09;;;;;;;8.15;3.90;;;17.40;99.90;;;;;;4940524;29;20034;-87
2022/06/08 06:22:35;;;;;;;5.78;3.58;;;17.50;99.90;;;;;;4940387;29;20036;-86
2022/06/08 06:25:02;;;;;;;4.32;3.88;;;17.60;99.90;;;;;;4928058;29;20051;-85
2022/06/08 06:27:28;;;;;;;5.22;3.90;;;17.70;99.90;;;;;;4940207;29;20031;-85
2022/06/08 06:29:54;;;;;;;6.35;3.67;;;17.80;99.90;;;;;;4940202;29;20042;-86
2022/06/08 06:32:29;;;;;;;5.22;3.90;;;17.90;99.90;;;;;;4940137;29;20436;-85
2022/06/08 06:34:56;;;;;;;3.63;3.28;;;18.10;99.90;;;;;;4940365;29;20032;-85
2022/06/08 06:37:22;;;;;;;3.42;2.85;;;18.20;99.90;;;;;;4940254;29;20188;-85
2022/06/08 06:39:48;;;;;;;3.25;2.97;;;18.10;99.90;;;;;;4940291;29;20038;-84
2022/06/08 06:42:20;;;;;;;4.22;3.45;;;18.10;99.90;;;;;;4940005;29;20024;-85
2022/06/08 06:44:46;;;;;;;4.60;3.30;;;18.00;99.90;;;;;;4939838;29;20135;-85
2022/06/08 06:47:12;;;;;;;4.68;3.60;;;18.10;99.90;;;;;;4939791;29;20032;-85
2022/06/08 06:49:38;;;;;;;3.40;3.03;;;18.10;99.90;;;;;;4939840;29;20070;-85
2022/06/08 06:52:04;;;;;;;3.78;3.47;;;18.00;99.90;;;;;;4939747;29;20055;-84
2022/06/08 06:54:31;;;;;;;6.15;3.63;;;18.00;99.90;;;;;;4939757;29;20088;-85
2022/06/08 06:56:57;;;;;;;4.60;3.30;;;18.00;99.90;;;;;;4939364;29;20031;-84
2022/06/08 06:59:22;;;;;;;4.40;2.92;;;18.10;99.90;;;;;;4939752;29;20087;-85
2022/06/08 07:01:48;;;;;;;12.02;4.22;;;18.10;99.90;;;;;;4939595;29;20067;-84
2022/06/08 07:04:15;;;;;;;4.45;3.05;;;18.10;99.90;;;;;;4938372;29;20027;-84
2022/06/08 07:06:41;;;;;;;3.08;2.67;;;18.20;99.90;;;;;;4939394;29;20111;-84
2022/06/08 07:09:07;;;;;;;3.97;2.92;;;18.40;99.90;;;;;;4939211;29;20028;-85
2022/06/08 07:11:32;;;;;;;2.63;2.45;;;18.70;99.90;;;;;;4939689;29;20040;-84
2022/06/08 07:13:59;;;;;;;3.13;2.83;;;19.00;99.90;;;;;;4938045;29;20043;-84
2022/06/08 07:16:25;;;;;;;6.13;3.45;;;19.10;99.90;;;;;;4939298;29;20070;-85
2022/06/08 07:18:51;;;;;;;2.22;2.13;;;19.10;99.90;;;;;;4939652;29;20031;-85
2022/06/08 07:21:17;;;;;;;4.32;2.63;;;19.20;99.90;;;;;;4939435;29;20042;-85
2022/06/08 07:23:43;;;;;;;3.17;2.38;;;19.50;99.90;;;;;;4939375;29;20120;-86
2022/06/08 07:26:09;;;;;;;2.70;2.50;;;19.90;99.90;;;;;;4939530;29;20127;-87
2022/06/08 07:28:35;;;;;;;2.28;1.95;;;20.30;99.90;;;;;;4922815;29;20126;-86
2022/06/08 07:31:01;;;;;;;5.93;3.20;;;20.50;99.90;;;;;;4939731;29;20036;-87
2022/06/08 07:33:27;;;;;;;3.70;2.13;;;20.60;99.90;;;;;;4939106;29;20429;-86
2022/06/08 07:35:53;;;;;;;6.43;2.70;;;21.00;99.90;;;;;;4939101;29;20032;-86
2022/06/08 07:38:18;;;;;;;3.78;2.10;;;21.40;99.90;;;;;;4939139;29;20035;-87
2022/06/08 07:40:45;;;;;;;4.10;2.17;;;21.70;99.90;;;;;;4922107;29;20451;-87
2022/06/08 07:43:11;;;;;;;2.38;2.17;;;21.80;99.90;;;;;;4939277;29;20028;-84
2022/06/08 07:45:36;;;;;;;2.25;2.08;;;21.90;99.90;;;;;;4938908;29;20451;-85
2022/06/08 07:50:47;;;;;;;2.80;2.60;;;21.90;99.90;;;;;;4938982;29;20118;-86
2022/06/08 07:53:12;;;;;;;3.30;2.25;;;21.90;99.90;;;;;;4938555;29;20100;-85
2022/06/08 07:55:38;;;;;;;5.90;2.50;;;21.80;99.90;;;;;;4938710;29;20035;-85
2022/06/08 07:58:04;;;;;;;2.95;2.35;;;22.10;99.90;;;;;;4938904;29;20418;-85
2022/06/08 08:00:30;;;;;;;4.22;2.55;;;22.20;99.90;;;;;;4938625;29;20036;-86
2022/06/08 08:02:56;;;;;;;5.65;2.17;;;22.40;99.90;;;;;;4938726;29;20043;-85
2022/06/08 08:05:22;;;;;;;2.25;2.08;;;22.60;99.90;;;;;;4938492;29;20031;-83
2022/06/08 08:07:48;;;;;;;2.92;2.60;;;22.80;99.90;;;;;;4937573;29;20052;-85
2022/06/08 08:10:19;;;;;;;7.80;2.75;;;23.00;99.90;;;;;;4938359;29;20079;-86
2022/06/08 08:12:46;;;;;;;3.60;2.50;;;22.60;99.90;;;;;;4938264;29;20039;-85
2022/06/08 08:15:13;;;;;;;2.30;2.10;;;22.60;99.90;;;;;;4938515;29;20031;-83
2022/06/08 08:17:40;;;;;;;2.22;1.77;;;22.80;99.90;;;;;;4921002;29;20039;-85
2022/06/08 08:20:07;;;;;;;6.05;2.30;;;23.30;99.90;;;;;;4938036;29;20023;-85
2022/06/08 08:22:33;;;;;;;2.38;2.28;;;23.60;99.90;;;;;;4938028;29;20055;-83
2022/06/08 08:24:59;;;;;;;3.55;2.17;;;23.60;99.90;;;;;;4937549;29;20481;-83
2022/06/08 08:27:24;;;;;;;5.85;2.85;;;23.60;99.90;;;;;;4937961;29;20573;-85
2022/06/08 08:29:51;;;;;;;3.17;2.53;;;23.90;99.90;;;;;;4937791;29;20114;-84
2022/06/08 08:32:16;;;;;;;2.60;2.25;;;24.20;99.90;;;;;;4921256;29;20036;-83
2022/06/08 08:34:42;;;;;;;2.55;2.35;;;24.10;99.90;;;;;;4937630;29;20388;-84
2022/06/08 08:37:08;;;;;;;4.00;2.20;;;24.10;99.90;;;;;;4937698;29;20039;-85
2022/06/08 08:39:34;;;;;;;3.90;2.20;;;24.30;99.90;;;;;;4921222;29;20471;-84
2022/06/08 08:44:48;;;;;;;6.38;2.60;;;25.20;99.90;;;;;;4937707;29;20046;-84
2022/06/08 08:47:32;;;;;;;2.58;2.17;;;25.10;98.10;;;;;;4937530;29;20064;-84
2022/06/08 08:50:46;;;;;;;2.33;2.13;;;25.20;98.80;;;;;;4920443;29;20027;-84
2022/06/08 08:53:14;;;;;;;2.60;2.40;;;24.60;97.20;;;;;;4928305;29;20563;-83
2022/06/08 08:55:46;;;;;;;4.82;2.92;;;23.70;99.00;;;;;;4920302;29;20082;-83
2022/06/08 08:58:18;;;;;;;15.23;2.80;;;23.20;99.90;;;;;;4936916;29;20031;-82
2022/06/08 09:00:55;;;;;;;2.17;2.08;;;23.30;99.90;;;;;;4936957;29;20028;-82
2022/06/08 09:03:26;;;;;;;3.20;2.90;;;24.30;99.90;;;;;;4937212;29;20028;-81
2022/06/08 09:06:14;;;;;;;4.10;2.60;;;23.80;99.90;;;;;;4937259;29;20027;-81
2022/06/08 09:08:43;;;;;;;3.15;2.78;;;23.70;99.90;;;;;;4929564;29;20067;-81
2022/06/08 09:11:31;;;;;;;2.88;2.30;;;24.10;99.90;;;;;;4936947;29;20038;-82
2022/06/08 09:14:00;;;;;;;;;;;25.20;99.20;;;;;;4937349;29;20031;-82
2022/06/08 09:16:39;;;;;;;3.90;2.42;;;26.10;93.90;;;;;;4936857;29;19911;-82
2022/06/08 09:19:25;;;;;;;2.15;2.05;;;26.00;92.20;;;;;;4936735;29;20020;-82
2022/06/08 09:21:59;;;;;;;4.68;2.10;;;25.70;94.70;;;;;;4936719;29;20028;-82
2022/06/08 09:24:31;;;;;;;2.78;2.50;;;25.50;94.60;;;;;;4936820;29;20107;-81
2022/06/08 09:27:11;;;;;;;6.68;2.10;;;25.60;93.00;;;;;;4919701;29;20059;-82
2022/06/08 09:29:56;;;;;;;2.13;2.03;;;25.60;91.00;;;;;;4936620;29;20092;-81
2022/06/08 09:32:32;;;;;;;4.65;2.28;;;25.10;92.60;;;;;;4919668;29;20056;-81
2022/06/08 09:35:05;;;;;;;2.35;2.15;;;24.90;94.40;;;;;;4919826;29;20046;-81
2022/06/08 09:37:31;;;;;;;3.53;2.13;;;24.80;93.40;;;;;;4936025;29;20067;-81
2022/06/08 09:40:01;;;;;;;2.30;1.63;;;24.80;93.80;;;;;;4936238;29;20499;-81
2022/06/08 09:42:38;;;;;;;5.75;2.20;;;24.60;92.10;;;;;;4919360;29;20110;-81
2022/06/08 09:45:13;;;;;;;2.55;2.03;;;24.80;92.00;;;;;;4936355;29;20035;-80
2022/06/08 09:51:26;;;;;;;2.60;2.10;;;25.30;93.50;;;;;;4936362;29;20091;-81
2022/06/08 09:54:16;;;;;;;3.55;1.65;;;26.00;89.30;;;;;;4936293;29;20023;-81
2022/06/08 09:57:09;;;;;;;2.42;1.80;;;26.10;85.80;;;;;;4919554;29;20036;-80
2022/06/08 10:00:00;;;;;;;4.68;1.50;;;25.80;83.50;;;;;;4919624;29;20453;-79
2022/06/08 10:02:39;;;;;;;4.03;1.50;;;24.80;88.50;;;;;;4936727;29;20032;-78
2022/06/08 10:05:34;;;;;;;2.05;1.23;;;24.50;88.10;;;;;;4936254;29;20035;-81
2022/06/08 10:08:00;;;;;;;1.48;1.05;;;24.90;89.00;;;;;;4919147;29;20071;-80
2022/06/08 10:10:34;;;;;;;2.53;1.55;;;25.30;86.90;;;;;;4936394;29;20032;-80
2022/06/08 10:13:16;;;;;;;1.15;1.00;;;25.50;81.70;;;;;;4936145;29;20480;-81
2022/06/08 10:15:53;;;;;;;2.28;1.00;;;26.00;82.90;;;;;;4919358;29;20066;-80
2022/06/08 10:18:37;;;;;;;1.77;1.00;;;26.90;79.70;;;;;;4936148;29;20088;-80
2022/06/08 10:21:20;;;;;;;0.90;0.80;;;26.80;70.20;;;;;;4936433;29;20032;-80
2022/06/08 10:24:01;;;;;;;0.70;0.70;;;26.50;66.20;;;;;;4936214;29;20028;-80
2022/06/08 10:26:40;;;;;;;3.90;0.73;;;26.60;68.20;;;;;;4936025;29;20036;-80
2022/06/08 10:29:41;;;;;;;1.35;1.10;;;26.30;61.50;;;;;;4936256;29;20072;-79
2022/06/08 10:32:14;;;;;;;2.00;0.90;;;26.70;64.20;;;;;;4922251;29;20035;-79
2022/06/08 10:34:40;;;;;;;4.25;0.90;;;27.30;64.50;;;;;;4922372;29;20071;-80
2022/06/08 10:37:17;;;;;;;3.80;0.90;;;27.40;64.60;;;;;;4922495;29;20400;-80
2022/06/08 10:39:45;;;;;;;1.83;1.00;;;27.30;64.10;;;;;;4939565;29;20028;-80
2022/06/08 10:42:39;;;;;;;3.75;1.05;;;27.70;64.70;;;;;;4939407;29;20040;-79
2022/06/08 10:45:31;;;;;;;1.98;0.68;;;28.00;61.10;;;;;;4922257;29;20373;-79
2022/06/08 10:48:15;;;;;;;2.40;0.80;;;27.80;60.60;;;;;;4916513;29;20039;-79
2022/06/08 10:50:44;;;;;;;0.90;0.90;;;27.60;59.50;;;;;;4939513;29;20371;-80
2022/06/08 10:56:24;;;;;;;1.23;1.10;;;27.90;56.20;;;;;;4939092;29;19921;-79
2022/06/08 10:59:03;;;;;;;0.65;0.65;;;28.20;57.00;;;;;;4939187;29;20035;-79
2022/06/08 11:01:54;;;;;;;1.27;0.75;;;28.80;53.50;;;;;;4939089;29;20356;-79
2022/06/08 11:04:32;;;;;;;2.22;0.70;;;28.90;53.00;;;;;;4939374;29;20031;-79
2022/06/08 11:07:16;;;;;;;1.20;0.55;;;29.10;55.30;;;;;;4938711;29;20035;-79
2022/06/08 11:09:43;;;;;;;3.95;1.52;;;29.60;50.90;;;;;;4939007;29;20027;-79
2022/06/08 11:12:12;;;;;;;1.05;0.85;;;29.80;50.40;;;;;;4921894;29;20071;-79
2022/06/08 11:14:37;;;;;;;;;;;30.10;50.90;;;;;;4939288;29;20027;-79
2022/06/08 11:17:09;;;;;;;2.33;1.20;;;30.40;51.60;;;;;;4938825;29;19959;-79
2022/06/08 11:19:35;;;;;;;3.13;0.65;;;30.70;50.40;;;;;;4938755;29;20035;-79
2022/06/08 11:22:10;;;;;;;1.13;0.75;;;30.60;48.50;;;;;;4938586;29;20032;-79
2022/06/08 11:24:49;;;;;;;0.85;0.80;;;30.70;49.80;;;;;;4938710;29;20099;-79
2022/06/08 11:27:36;;;;;;;2.20;0.63;;;30.30;47.90;;;;;;4938831;29;20050;-79
2022/06/08 11:30:14;;;;;;;3.03;0.90;;;29.90;49.20;;;;;;4938589;29;20020;-79
2022/06/08 11:33:02;;;;;;;2.55;0.88;;;29.90;49.50;;;;;;4938316;29;20032;-79
2022/06/08 11:36:00;;;;;;;0.85;0.65;;;29.20;51.60;;;;;;4921649;29;20039;-79
2022/06/08 11:38:49;;;;;;;1.42;0.70;;;29.40;51.60;;;;;;4937335;29;20096;-78
2022/06/08 11:41:38;;;;;;;3.17;0.90;;;29.70;49.00;;;;;;4930679;29;20448;-79
2022/06/08 11:44:19;;;;;;;0.70;0.68;;;29.50;49.50;;;;;;4938218;29;20038;-79
2022/06/08 11:46:53;;;;;;;0.70;0.70;;;29.20;51.30;;;;;;4938592;29;20019;-78
2022/06/08 11:49:34;;;;;;;3.58;0.80;;;29.90;51.10;;;;;;4938250;29;20070;-79
2022/06/08 11:52:24;;;;;;;1.08;0.60;;;30.80;49.00;;;;;;4921337;29;20023;-79
2022/06/08 11:55:00;;;;;;;2.03;0.70;;;31.40;47.20;;;;;;4938005;29;20115;-78
2022/06/08 11:57:26;;;;;;;1.15;0.60;;;31.20;47.00;;;;;;4938025;29;20100;-78
2022/06/08 11:59:54;;;;;;;0.60;0.60;;;31.10;46.30;;;;;;4938588;29;20495;-78
2022/06/08 12:02:35;;;;;;;0.73;0.73;;;30.80;46.60;;;;;;4920774;29;20034;-79
2022/06/08 12:05:02;;;;;;;2.08;0.65;;;30.60;46.50;;;;;;4920786;29;20031;-78
2022/06/08 12:07:36;;;;;;;0.90;0.65;;;30.30;47.10;;;;;;4938231;29;20104;-78
2022/06/08 12:10:05;;;;;;;3.72;0.73;;;30.60;47.70;;;;;;4938024;29;20084;-78
2022/06/08 12:12:31;;;;;;;3.00;0.88;;;30.50;47.60;;;;;;4920689;29;20380;-78
2022/06/08 12:15:16;;;;;;;1.33;0.65;;;29.90;47.60;;;;;;4937699;29;20044;-78
2022/06/08 12:17:42;;;;;;;0.85;0.60;;;29.40;47.90;;;;;;4920526;29;20127;-78
2022/06/08 12:20:34;;;;;;;1.63;0.73;;;29.40;48.10;;;;;;4937890;29;20088;-78
2022/06/08 12:23:01;;;;;;;0.55;0.55;;;29.70;48.20;;;;;;4931894;29;20452;-78
2022/06/08 12:25:30;;;;;;;1.55;0.63;;;30.00;47.70;;;;;;4926166;29;20395;-78
2022/06/08 12:28:00;;;;;;;0.88;0.88;;;30.10;46.70;;;;;;4918319;29;20032;-77
2022/06/08 12:30:52;;;;;;;1.73;0.80;;;30.20;45.30;;;;;;4918207;29;20480;-77
2022/06/08 12:33:17;;;;;;;0.63;0.63;;;29.80;47.70;;;;;;4901478;29;20036;-77
2022/06/08 12:35:56;;;;;;;0.40;0.40;;;29.30;46.50;;;;;;4901413;29;20031;-77
2022/06/08 12:38:26;;;;;;;0.95;0.50;;;29.60;48.30;;;;;;4918334;29;20029;-78
2022/06/08 12:41:16;;;;;;;1.52;0.70;;;29.50;47.20;;;;;;4918351;29;20031;-77
2022/06/08 12:43:47;;;;;;;1.40;0.80;;;29.90;49.60;;;;;;4918328;29;20361;-77
2022/06/08 12:46:13;;;;;;;1.95;0.70;;;29.60;48.90;;;;;;4901177;29;20028;-77
2022/06/08 12:48:46;;;;;;;0.60;0.60;;;29.70;49.20;;;;;;4918355;29;20460;-77
2022/06/08 12:51:22;;;;;;;2.58;0.75;;;30.20;48.40;;;;;;4917964;29;20379;-77
2022/06/08 12:53:48;;;;;;;1.08;0.50;;;30.80;45.70;;;;;;4900762;29;20036;-77
2022/06/08 12:56:14;;;;;;;1.73;0.75;;;31.50;45.80;;;;;;4918550;29;20054;-77
2022/06/08 12:58:40;;;;;;;0.85;0.57;;;31.60;44.00;;;;;;4917921;29;20053;-77
2022/06/08 13:01:11;;;;;;;0.90;0.60;;;31.70;45.20;;;;;;4917957;29;20048;-77
2022/06/08 13:03:37;;;;;;;2.20;0.75;;;32.70;44.10;;;;;;4918114;29;20425;-77
2022/06/08 13:06:02;;;;;;;2.40;0.90;;;32.70;43.10;;;;;;4918213;29;20024;-77
2022/06/08 13:08:28;;;;;;;0.73;0.50;;;31.80;43.80;;;;;;4900969;29;20032;-77
2022/06/08 13:10:56;;;;;;;1.77;0.80;;;31.00;45.40;;;;;;4917929;29;20448;-77
2022/06/08 13:13:25;;;;;;;0.98;0.57;;;30.20;46.40;;;;;;4917776;29;20032;-77
2022/06/08 13:15:51;;;;;;;1.25;0.60;;;30.40;47.10;;;;;;4900806;29;20472;-77
2022/06/08 13:18:23;;;;;;;0.50;0.50;;;31.00;46.30;;;;;;4917773;29;20028;-78
2022/06/08 13:20:51;;;;;;;2.58;0.63;;;31.00;44.20;;;;;;4917813;29;20043;-77
2022/06/08 13:23:17;;;;;;;0.60;0.60;;;30.50;46.30;;;;;;4900786;29;20133;-78